Time;durP1;ratioP1;P1;durP2;ratioP2;P2;SDS_P1;SDS_P2;PMS_P1;PMS_P2;Temp;Humidity;BMP_temperature;BMP_pressure;BME280_temperature;BME280_humidity;BME280_pressure;Samples;Min_cycle;Max_cycle;Signal;HPM_P1;HPM_P2
2023/07/29 00:00:53;;;;;;;3.97;2.37;;;19.10;99.90;;;;;;5055222;28;20924;-69
2023/07/29 00:03:20;;;;;;;4.03;2.13;;;19.00;99.90;;;;;;5055321;28;20497;-69
2023/07/29 00:05:48;;;;;;;3.93;2.40;;;18.80;99.90;;;;;;5055493;28;20538;-69
2023/07/29 00:08:15;;;;;;;3.97;2.37;;;18.90;99.90;;;;;;5055403;28;20507;-69
2023/07/29 00:10:43;;;;;;;3.50;2.33;;;18.80;99.90;;;;;;5055388;28;20552;-69
2023/07/29 00:13:12;;;;;;;6.47;1.77;;;18.80;99.90;;;;;;5054768;28;21074;-69
2023/07/29 00:15:41;;;;;;;4.13;2.40;;;18.80;99.90;;;;;;5053527;28;20516;-69
2023/07/29 00:18:08;;;;;;;5.37;2.10;;;18.70;99.90;;;;;;5055352;28;20860;-69
2023/07/29 00:20:36;;;;;;;5.80;2.70;;;18.70;99.90;;;;;;5055765;28;20466;-69
2023/07/29 00:23:03;;;;;;;4.50;2.50;;;18.70;99.90;;;;;;5055478;28;20520;-69
2023/07/29 00:25:30;;;;;;;3.40;2.03;;;18.70;99.90;;;;;;5053924;28;20525;-70
2023/07/29 00:28:00;;;;;;;3.60;2.50;;;18.60;99.90;;;;;;5055339;28;20525;-69
2023/07/29 00:30:28;;;;;;;4.53;2.27;;;18.60;99.90;;;;;;5055024;28;20513;-69
2023/07/29 00:32:55;;;;;;;3.83;2.53;;;18.60;99.90;;;;;;5055290;28;20497;-69
2023/07/29 00:35:23;;;;;;;3.50;2.00;;;18.50;99.90;;;;;;5054973;28;20503;-69
2023/07/29 00:37:50;;;;;;;4.40;2.80;;;18.40;99.90;;;;;;5055279;28;20434;-69
2023/07/29 00:40:21;;;;;;;3.90;2.40;;;18.40;99.90;;;;;;5054944;28;20438;-69
2023/07/29 00:42:48;;;;;;;8.80;2.13;;;18.40;99.90;;;;;;5054870;28;20443;-69
2023/07/29 00:45:20;;;;;;;6.13;2.43;;;18.30;99.90;;;;;;5054781;28;20434;-69
2023/07/29 00:47:52;;;;;;;6.63;2.67;;;18.20;99.90;;;;;;5055117;28;20455;-69
2023/07/29 00:50:21;;;;;;;6.03;2.10;;;18.20;99.90;;;;;;5054166;28;20430;-69
2023/07/29 00:52:49;;;;;;;4.83;2.73;;;18.20;99.90;;;;;;5054458;28;20564;-69
2023/07/29 00:55:20;;;;;;;3.93;2.63;;;18.20;99.90;;;;;;5054854;28;20521;-69
2023/07/29 00:57:49;;;;;;;3.63;2.27;;;18.30;99.90;;;;;;5054628;28;20971;-69
2023/07/29 01:00:19;;;;;;;2.80;1.93;;;18.30;99.90;;;;;;5054478;28;20496;-69
2023/07/29 01:02:46;;;;;;;8.90;2.73;;;18.30;99.90;;;;;;5053683;28;20454;-69
2023/07/29 01:05:15;;;;;;;5.20;2.97;;;18.30;99.90;;;;;;5054548;28;20441;-69
2023/07/29 01:07:49;;;;;;;3.60;2.27;;;18.30;99.90;;;;;;5054681;28;20484;-69
2023/07/29 01:10:22;;;;;;;21.80;10.00;;;18.30;99.90;;;;;;5054192;28;20552;-69
2023/07/29 01:12:55;;;;;;;10.97;6.27;;;18.20;99.90;;;;;;5052886;28;20458;-69
2023/07/29 01:15:28;;;;;;;9.57;5.57;;;18.20;99.90;;;;;;5054216;28;20422;-69
2023/07/29 01:17:57;;;;;;;9.57;4.80;;;18.20;99.90;;;;;;5053976;28;20454;-69
2023/07/29 01:20:26;;;;;;;6.10;3.17;;;18.10;99.90;;;;;;5054382;28;20437;-69
2023/07/29 01:22:53;;;;;;;4.57;2.80;;;18.10;99.90;;;;;;5053844;28;20980;-69
2023/07/29 01:25:21;;;;;;;5.63;2.53;;;18.10;99.90;;;;;;5054281;28;20445;-69
2023/07/29 01:27:52;;;;;;;4.53;2.53;;;18.10;99.90;;;;;;5054252;28;20470;-69
2023/07/29 01:30:19;;;;;;;4.40;2.83;;;18.10;99.90;;;;;;5054238;28;20430;-69
2023/07/29 01:32:55;;;;;;;5.73;3.53;;;18.10;99.90;;;;;;5053681;28;20476;-75
2023/07/29 01:35:28;;;;;;;4.30;2.40;;;18.10;99.90;;;;;;5054135;28;20430;-69
2023/07/29 01:37:57;;;;;;;5.03;2.40;;;18.10;99.90;;;;;;5053160;28;20426;-69
2023/07/29 01:40:28;;;;;;;4.37;2.20;;;18.10;99.90;;;;;;5053754;28;20956;-69
2023/07/29 01:42:55;;;;;;;4.53;2.73;;;18.00;99.90;;;;;;5053532;28;20846;-68
2023/07/29 01:45:27;;;;;;;3.47;2.07;;;18.00;99.90;;;;;;5054157;28;20433;-69
2023/07/29 01:47:54;;;;;;;3.80;2.40;;;17.90;99.90;;;;;;5053944;28;20850;-69
2023/07/29 01:50:23;;;;;;;6.53;4.53;;;18.00;99.90;;;;;;5053511;28;20510;-69
2023/07/29 01:52:54;;;;;;;6.97;4.90;;;18.00;99.90;;;;;;5053229;28;20483;-69
2023/07/29 01:55:22;;;;;;;5.20;3.80;;;18.00;99.90;;;;;;5053815;28;20831;-69
2023/07/29 01:57:51;;;;;;;4.87;3.83;;;17.90;99.90;;;;;;5053406;28;20435;-69
2023/07/29 02:00:19;;;;;;;5.50;3.03;;;17.90;99.90;;;;;;5053779;28;20434;-69
2023/07/29 02:02:46;;;;;;;4.83;3.13;;;17.80;99.90;;;;;;5053233;28;20839;-69
2023/07/29 02:05:15;;;;;;;4.63;2.80;;;17.80;99.90;;;;;;5053639;28;20446;-69
2023/07/29 02:07:42;;;;;;;4.90;2.70;;;17.80;99.90;;;;;;5053344;28;21012;-69
2023/07/29 02:10:10;;;;;;;3.50;2.37;;;17.80;99.90;;;;;;5053334;28;20972;-69
2023/07/29 02:12:37;;;;;;;3.90;2.37;;;17.90;99.90;;;;;;5052689;28;20470;-70
2023/07/29 02:15:07;;;;;;;5.73;2.40;;;17.80;99.90;;;;;;5053156;28;20469;-69
2023/07/29 02:17:34;;;;;;;5.37;3.07;;;17.70;99.90;;;;;;5053473;28;20499;-69
2023/07/29 02:20:01;;;;;;;3.87;2.60;;;17.70;99.90;;;;;;5053137;28;20511;-69
2023/07/29 02:22:33;;;;;;;5.03;2.30;;;17.70;99.90;;;;;;5053290;28;20437;-69
2023/07/29 02:25:05;;;;;;;4.27;2.73;;;17.70;99.90;;;;;;5057323;28;20876;-69
2023/07/29 02:27:33;;;;;;;3.60;2.40;;;17.70;99.90;;;;;;5059706;28;20432;-69
2023/07/29 02:30:02;;;;;;;3.27;2.03;;;17.80;99.90;;;;;;5059494;28;20838;-68
2023/07/29 02:32:30;;;;;;;5.63;4.17;;;17.70;99.90;;;;;;5059341;28;20463;-69
2023/07/29 02:34:57;;;;;;;5.03;2.97;;;17.60;99.90;;;;;;5059494;28;20559;-68
2023/07/29 02:37:26;;;;;;;4.73;3.60;;;17.50;99.90;;;;;;5059568;28;20495;-69
2023/07/29 02:39:53;;;;;;;5.00;2.40;;;17.50;99.90;;;;;;5059566;28;20524;-70
2023/07/29 02:42:24;;;;;;;6.13;2.77;;;17.60;99.90;;;;;;5059835;28;20844;-69
2023/07/29 02:44:52;;;;;;;5.00;3.50;;;17.60;99.90;;;;;;5059570;28;20464;-68
2023/07/29 02:47:19;;;;;;;5.20;3.30;;;17.70;99.90;;;;;;5059509;28;20445;-69
2023/07/29 02:49:47;;;;;;;5.13;3.13;;;17.70;99.90;;;;;;5059727;28;20495;-68
2023/07/29 02:52:19;;;;;;;5.73;2.63;;;17.70;99.90;;;;;;5059471;28;20437;-68
2023/07/29 02:54:47;;;;;;;4.67;2.50;;;17.80;99.90;;;;;;5059724;28;20878;-69
2023/07/29 02:57:19;;;;;;;4.70;3.20;;;17.80;99.90;;;;;;5059928;28;20511;-68
2023/07/29 02:59:46;;;;;;;4.63;2.90;;;17.80;99.90;;;;;;5059211;28;20433;-69
2023/07/29 03:02:14;;;;;;;3.80;2.37;;;17.90;99.90;;;;;;5058727;28;20523;-69
2023/07/29 03:04:45;;;;;;;4.30;2.67;;;17.90;99.90;;;;;;5059574;28;20538;-69
2023/07/29 03:07:14;;;;;;;4.10;2.53;;;18.00;99.90;;;;;;5059883;28;20847;-68
2023/07/29 03:09:45;;;;;;;5.60;2.57;;;18.00;99.90;;;;;;5059295;28;20500;-69
2023/07/29 03:12:12;;;;;;;4.33;2.13;;;18.10;99.90;;;;;;5059315;28;20842;-69
2023/07/29 03:14:41;;;;;;;3.77;2.17;;;18.10;99.90;;;;;;5059535;28;20560;-69
2023/07/29 03:17:10;;;;;;;4.20;2.57;;;18.10;99.90;;;;;;5059180;28;20430;-69
2023/07/29 03:19:37;;;;;;;4.70;2.50;;;18.20;99.90;;;;;;5059218;28;20806;-69
2023/07/29 03:22:04;;;;;;;3.90;2.67;;;18.20;99.90;;;;;;5059001;28;20534;-69
2023/07/29 03:24:33;;;;;;;5.07;3.60;;;18.10;99.90;;;;;;5059415;28;20951;-68
2023/07/29 03:27:00;;;;;;;4.67;2.93;;;18.10;99.90;;;;;;5059435;28;20850;-69
2023/07/29 03:29:27;;;;;;;6.30;3.17;;;18.10;99.90;;;;;;5059414;28;20465;-69
2023/07/29 03:31:54;;;;;;;7.90;2.70;;;18.20;99.90;;;;;;5058866;28;20520;-69
2023/07/29 03:34:23;;;;;;;3.93;2.70;;;18.30;99.90;;;;;;5059261;28;20472;-69
2023/07/29 03:36:51;;;;;;;4.80;2.60;;;18.30;99.90;;;;;;5055438;28;20524;-69
2023/07/29 03:39:21;;;;;;;4.27;2.53;;;18.30;99.90;;;;;;5055785;28;20460;-68
2023/07/29 03:41:55;;;;;;;4.83;3.20;;;18.30;99.90;;;;;;5055865;28;20441;-69
2023/07/29 03:44:24;;;;;;;4.20;2.70;;;18.20;99.90;;;;;;5055842;28;20516;-69
2023/07/29 03:46:51;;;;;;;8.00;3.03;;;18.10;99.90;;;;;;5056283;28;20499;-68
2023/07/29 03:49:26;;;;;;;6.13;3.53;;;18.10;99.90;;;;;;5055888;28;20478;-68
2023/07/29 03:51:53;;;;;;;7.60;4.23;;;17.90;99.90;;;;;;5055603;28;20482;-69
2023/07/29 03:54:20;;;;;;;9.63;4.97;;;17.80;99.90;;;;;;5055777;28;20561;-69
2023/07/29 03:56:49;;;;;;;6.47;3.53;;;17.70;99.90;;;;;;5054868;28;20469;-69
2023/07/29 03:59:18;;;;;;;7.13;3.33;;;17.80;99.90;;;;;;5055765;28;20489;-69
2023/07/29 04:01:45;;;;;;;7.00;3.63;;;17.70;99.90;;;;;;5054885;28;20478;-69
2023/07/29 04:04:12;;;;;;;4.77;3.17;;;17.70;99.90;;;;;;5055764;28;20476;-68
2023/07/29 04:06:44;;;;;;;5.30;3.53;;;17.50;99.90;;;;;;5055355;28;20438;-68
2023/07/29 04:09:12;;;;;;;4.93;2.87;;;17.60;99.90;;;;;;5055499;28;20523;-69
2023/07/29 04:11:39;;;;;;;3.53;2.47;;;17.70;99.90;;;;;;5055142;28;20462;-69
2023/07/29 04:14:06;;;;;;;4.73;2.80;;;17.70;99.90;;;;;;5055174;28;21022;-69
2023/07/29 04:16:34;;;;;;;5.00;3.23;;;17.70;99.90;;;;;;5055500;28;20856;-69
2023/07/29 04:19:01;;;;;;;4.57;2.90;;;17.70;99.90;;;;;;5055376;28;20477;-69
2023/07/29 04:21:28;;;;;;;4.33;3.40;;;17.70;99.90;;;;;;5054536;28;20476;-69
2023/07/29 04:23:57;;;;;;;5.07;2.63;;;17.80;99.90;;;;;;5055380;28;20472;-68
2023/07/29 04:26:24;;;;;;;5.63;2.93;;;17.80;99.90;;;;;;5055057;28;20469;-68
2023/07/29 04:28:51;;;;;;;6.63;3.17;;;17.80;99.90;;;;;;5054887;28;20492;-68
2023/07/29 04:31:18;;;;;;;3.03;2.10;;;17.80;99.90;;;;;;5054835;28;20473;-69
2023/07/29 04:33:47;;;;;;;4.07;2.50;;;17.90;99.90;;;;;;5055041;28;20446;-68
2023/07/29 04:36:14;;;;;;;4.30;2.73;;;18.00;99.90;;;;;;5055163;28;20442;-69
2023/07/29 04:38:41;;;;;;;4.53;2.77;;;18.00;99.90;;;;;;5054904;28;20433;-70
2023/07/29 04:41:08;;;;;;;3.90;2.50;;;18.10;99.90;;;;;;5054760;28;20507;-69
2023/07/29 04:43:36;;;;;;;3.90;2.40;;;18.20;99.90;;;;;;5055293;28;20870;-69
2023/07/29 04:46:03;;;;;;;4.23;2.30;;;18.20;99.90;;;;;;5054654;28;20437;-69
2023/07/29 04:48:34;;;;;;;3.70;2.23;;;18.30;99.90;;;;;;5054616;28;20438;-68
2023/07/29 04:51:02;;;;;;;4.13;2.77;;;18.30;99.90;;;;;;5054224;28;20509;-69
2023/07/29 04:53:29;;;;;;;4.57;2.87;;;18.20;99.90;;;;;;5054765;28;20485;-68
2023/07/29 04:55:56;;;;;;;5.27;2.47;;;18.30;99.90;;;;;;5054761;28;20547;-69
2023/07/29 04:58:24;;;;;;;3.60;2.33;;;18.40;99.90;;;;;;5054392;28;20467;-70
2023/07/29 05:00:51;;;;;;;4.00;2.87;;;18.40;99.90;;;;;;5054387;28;20434;-69
2023/07/29 05:03:18;;;;;;;6.37;2.33;;;18.40;99.90;;;;;;5054170;28;20477;-69
2023/07/29 05:05:46;;;;;;;3.77;2.33;;;18.40;99.90;;;;;;5054578;28;20446;-69
2023/07/29 05:08:15;;;;;;;4.33;2.40;;;18.50;99.90;;;;;;5054507;28;20532;-69
2023/07/29 05:10:42;;;;;;;6.50;3.17;;;18.60;99.90;;;;;;5051663;28;20462;-69
2023/07/29 05:13:09;;;;;;;3.13;2.07;;;18.60;99.90;;;;;;5053126;28;20526;-69
2023/07/29 05:15:36;;;;;;;3.83;2.30;;;18.70;99.90;;;;;;5053485;28;20565;-69
2023/07/29 05:18:08;;;;;;;6.73;2.90;;;18.70;99.90;;;;;;5052507;28;20494;-69
2023/07/29 05:20:35;;;;;;;4.37;2.83;;;18.70;99.90;;;;;;5053010;28;20521;-70
2023/07/29 05:23:02;;;;;;;3.80;2.40;;;18.70;99.90;;;;;;5053218;28;20485;-69
2023/07/29 05:25:30;;;;;;;5.20;2.87;;;18.80;99.90;;;;;;5053419;28;20480;-68
2023/07/29 05:27:57;;;;;;;6.20;2.27;;;18.80;99.90;;;;;;5053464;28;20446;-69
2023/07/29 05:30:26;;;;;;;4.10;3.00;;;18.80;99.90;;;;;;5053188;28;20530;-71
2023/07/29 05:32:53;;;;;;;4.17;2.70;;;18.80;99.90;;;;;;5052599;28;20454;-69
2023/07/29 05:35:20;;;;;;;4.70;2.37;;;18.80;99.90;;;;;;5053316;28;20568;-69
2023/07/29 05:37:47;;;;;;;3.47;2.37;;;18.60;99.90;;;;;;5053367;28;20530;-69
2023/07/29 05:40:14;;;;;;;3.70;2.30;;;18.50;99.90;;;;;;5053455;28;20461;-69
2023/07/29 05:42:42;;;;;;;4.63;2.67;;;18.40;99.90;;;;;;5047855;28;20584;-69
2023/07/29 05:45:26;;;;;;;4.20;2.63;;;18.40;99.90;;;;;;5053510;28;20534;-69
2023/07/29 05:47:58;;;;;;;5.40;2.90;;;18.50;99.90;;;;;;5054220;28;20510;-69
2023/07/29 05:50:29;;;;;;;3.67;2.10;;;18.60;99.90;;;;;;5054826;28;20442;-69
2023/07/29 05:52:57;;;;;;;3.83;2.23;;;18.60;99.90;;;;;;5052516;28;20446;-68
2023/07/29 05:55:29;;;;;;;3.77;2.27;;;18.70;99.90;;;;;;5054689;28;20494;-68
2023/07/29 05:57:57;;;;;;;4.27;2.73;;;18.70;99.90;;;;;;5053414;28;20942;-68
2023/07/29 06:00:29;;;;;;;5.83;2.40;;;18.80;99.90;;;;;;5054954;28;20441;-69
2023/07/29 06:03:20;;;;;;;4.60;3.40;;;18.80;99.90;;;;;;5054575;28;20844;-68
2023/07/29 06:05:56;;;;;;;4.73;2.70;;;18.80;99.90;;;;;;5054225;28;20442;-68
2023/07/29 06:08:29;;;;;;;4.70;2.93;;;18.80;99.90;;;;;;5053206;28;21011;-68
2023/07/29 06:10:58;;;;;;;4.20;2.67;;;18.70;99.90;;;;;;5052128;28;20638;-68
2023/07/29 06:13:30;;;;;;;4.80;4.13;;;18.80;99.90;;;;;;5052480;28;20530;-69
2023/07/29 06:15:58;;;;;;;8.27;3.17;;;18.80;99.90;;;;;;5053237;28;20995;-69
2023/07/29 06:18:28;;;;;;;4.47;2.73;;;18.90;99.90;;;;;;5052345;28;20469;-68
2023/07/29 06:20:55;;;;;;;4.03;2.90;;;18.90;99.90;;;;;;5052277;28;20524;-69
2023/07/29 06:23:22;;;;;;;4.23;2.43;;;18.90;99.90;;;;;;5051656;28;20536;-71
2023/07/29 06:25:54;;;;;;;4.27;3.00;;;18.90;99.90;;;;;;5052395;28;20534;-71
2023/07/29 06:28:21;;;;;;;4.40;2.47;;;18.90;99.90;;;;;;5052964;28;20843;-69
2023/07/29 06:30:49;;;;;;;8.80;3.20;;;18.90;99.90;;;;;;5052097;28;20501;-69
2023/07/29 06:33:16;;;;;;;4.73;2.57;;;18.90;99.90;;;;;;5052211;28;20520;-70
2023/07/29 06:35:43;;;;;;;4.80;3.10;;;19.00;99.90;;;;;;5052890;28;20478;-68
2023/07/29 06:38:10;;;;;;;8.33;3.43;;;19.00;99.90;;;;;;5052597;28;20526;-68
2023/07/29 06:40:37;;;;;;;4.93;3.00;;;19.10;99.90;;;;;;5052481;28;20435;-69
2023/07/29 06:43:04;;;;;;;4.30;2.63;;;19.10;99.90;;;;;;5052407;28;20474;-70
2023/07/29 06:45:31;;;;;;;4.70;2.87;;;19.10;99.90;;;;;;5052474;28;20482;-74
2023/07/29 06:47:59;;;;;;;5.93;2.60;;;19.10;99.90;;;;;;5052715;28;20530;-69
2023/07/29 06:50:26;;;;;;;4.20;3.20;;;19.20;99.90;;;;;;5052524;28;20858;-69
2023/07/29 06:52:53;;;;;;;3.87;2.50;;;19.20;99.90;;;;;;5052146;28;20514;-69
2023/07/29 06:55:20;;;;;;;4.87;2.53;;;19.20;99.90;;;;;;5051906;28;20510;-69
2023/07/29 06:57:48;;;;;;;3.97;2.97;;;19.20;99.90;;;;;;5052591;28;20442;-69
2023/07/29 07:00:15;;;;;;;5.17;3.30;;;19.20;99.90;;;;;;5052541;28;20529;-68
2023/07/29 07:02:42;;;;;;;5.30;3.57;;;19.30;99.90;;;;;;5051530;28;20434;-69
2023/07/29 07:05:11;;;;;;;4.17;3.00;;;19.30;99.90;;;;;;5052566;28;20447;-68
2023/07/29 07:07:39;;;;;;;4.60;2.83;;;19.40;99.90;;;;;;5052273;28;20429;-69
2023/07/29 07:10:12;;;;;;;4.30;2.70;;;19.50;99.90;;;;;;5052164;28;20470;-71
2023/07/29 07:12:39;;;;;;;3.50;2.57;;;19.50;99.90;;;;;;5054785;28;20433;-70
2023/07/29 07:15:08;;;;;;;5.63;2.90;;;19.60;99.90;;;;;;5055077;28;20509;-70
2023/07/29 07:17:35;;;;;;;4.20;2.63;;;19.70;99.90;;;;;;5055296;28;20470;-70
2023/07/29 07:20:04;;;;;;;4.47;2.70;;;19.70;99.90;;;;;;5055383;28;20445;-69
2023/07/29 07:22:33;;;;;;;4.30;2.70;;;19.70;99.90;;;;;;5035959;28;20450;-69
2023/07/29 07:25:00;;;;;;;3.83;2.60;;;19.70;99.90;;;;;;5036194;28;20481;-69
2023/07/29 07:27:27;;;;;;;6.50;2.73;;;19.70;99.90;;;;;;5046166;28;20838;-69
2023/07/29 07:29:54;;;;;;;4.23;2.90;;;19.70;99.90;;;;;;5056070;28;20523;-69
2023/07/29 07:32:21;;;;;;;6.27;2.90;;;19.80;99.90;;;;;;5055968;28;20441;-69
2023/07/29 07:34:48;;;;;;;4.43;2.93;;;19.80;99.90;;;;;;5055787;28;20526;-69
2023/07/29 07:37:15;;;;;;;3.47;2.57;;;19.80;99.90;;;;;;5055299;28;20916;-69
2023/07/29 07:39:43;;;;;;;5.20;3.20;;;19.90;99.90;;;;;;5055057;28;20497;-69
2023/07/29 07:42:10;;;;;;;5.73;3.23;;;19.90;99.90;;;;;;5053486;28;20471;-69
2023/07/29 07:44:37;;;;;;;3.97;3.37;;;19.90;99.90;;;;;;5055456;28;20530;-69
2023/07/29 07:47:08;;;;;;;4.20;2.93;;;20.00;99.90;;;;;;5049741;28;20492;-69
2023/07/29 07:49:36;;;;;;;4.00;2.60;;;20.20;99.90;;;;;;5054541;28;20431;-71
2023/07/29 07:52:04;;;;;;;3.13;2.33;;;20.30;99.90;;;;;;5055090;28;20471;-69
2023/07/29 07:54:31;;;;;;;4.47;3.13;;;20.50;99.90;;;;;;5055319;28;20526;-70
2023/07/29 07:57:01;;;;;;;4.70;3.07;;;20.50;99.90;;;;;;5054914;28;20486;-70
2023/07/29 07:59:28;;;;;;;6.47;3.73;;;20.40;99.90;;;;;;5055272;28;20484;-69
2023/07/29 08:01:55;;;;;;;4.93;3.20;;;20.40;99.90;;;;;;5054342;28;20483;-69
2023/07/29 08:04:22;;;;;;;5.30;3.70;;;20.50;99.90;;;;;;5055147;28;20849;-69
2023/07/29 08:06:49;;;;;;;5.80;4.30;;;20.50;99.90;;;;;;5055119;28;20479;-69
2023/07/29 08:09:16;;;;;;;6.27;3.83;;;20.30;99.90;;;;;;5054968;28;20471;-70
2023/07/29 08:11:43;;;;;;;7.37;2.90;;;20.30;99.90;;;;;;5054992;28;20443;-69
2023/07/29 08:14:13;;;;;;;5.60;2.77;;;20.40;99.90;;;;;;5054620;28;20504;-69
2023/07/29 08:16:40;;;;;;;4.57;3.37;;;20.40;99.90;;;;;;5054903;28;20477;-69
2023/07/29 08:19:07;;;;;;;5.30;3.50;;;20.50;99.90;;;;;;5053914;28;20535;-69
2023/07/29 08:21:33;;;;;;;5.93;3.80;;;20.50;99.90;;;;;;5054440;28;20464;-70
2023/07/29 08:24:00;;;;;;;7.90;3.10;;;20.60;99.90;;;;;;5053438;28;20526;-69
2023/07/29 08:26:29;;;;;;;7.50;3.30;;;20.80;99.90;;;;;;5054438;28;20536;-69
2023/07/29 08:28:56;;;;;;;4.50;3.60;;;20.90;99.90;;;;;;5054514;28;20527;-69
2023/07/29 08:31:25;;;;;;;3.90;2.60;;;20.90;99.90;;;;;;5054255;28;20531;-69
2023/07/29 08:33:52;;;;;;;3.97;2.90;;;20.90;99.90;;;;;;5053898;28;20478;-69
2023/07/29 08:36:19;;;;;;;9.73;3.47;;;21.00;99.90;;;;;;5054233;28;21056;-69
2023/07/29 08:38:46;;;;;;;3.40;2.53;;;21.00;99.90;;;;;;5054510;28;20441;-69
2023/07/29 08:41:17;;;;;;;4.40;2.93;;;21.00;99.90;;;;;;5054352;28;20447;-70
2023/07/29 08:43:51;;;;;;;5.43;2.63;;;21.00;99.90;;;;;;5054094;28;20554;-69
2023/07/29 08:46:20;;;;;;;4.07;2.60;;;21.10;99.90;;;;;;5053493;28;20444;-70
2023/07/29 08:48:48;;;;;;;4.83;3.10;;;21.20;99.90;;;;;;5053683;28;20444;-69
2023/07/29 08:51:16;;;;;;;4.20;2.50;;;21.40;99.90;;;;;;5053999;28;20432;-69
2023/07/29 08:53:49;;;;;;;3.53;2.50;;;21.40;99.90;;;;;;5054187;28;20516;-69
2023/07/29 08:56:16;;;;;;;3.97;2.87;;;21.50;99.90;;;;;;5053493;28;20554;-70
2023/07/29 08:58:44;;;;;;;3.60;2.60;;;21.50;99.90;;;;;;5053862;28;20490;-69
2023/07/29 09:01:12;;;;;;;6.53;3.50;;;21.60;99.90;;;;;;5053824;28;20475;-70
2023/07/29 09:03:39;;;;;;;3.17;2.60;;;21.80;99.90;;;;;;5053962;28;20522;-69
2023/07/29 09:06:09;;;;;;;4.17;2.73;;;22.00;99.90;;;;;;5053564;28;20530;-69
2023/07/29 09:08:36;;;;;;;4.90;3.10;;;22.10;99.90;;;;;;5054220;28;20846;-69
2023/07/29 09:11:04;;;;;;;5.97;3.40;;;22.30;99.90;;;;;;5053336;28;20819;-69
2023/07/29 09:13:31;;;;;;;5.70;3.70;;;22.50;99.40;;;;;;5053739;28;20516;-70
2023/07/29 09:15:59;;;;;;;6.60;3.50;;;22.60;99.50;;;;;;5053637;28;20558;-69
2023/07/29 09:18:28;;;;;;;5.17;3.50;;;22.80;98.00;;;;;;5053528;28;20453;-69
2023/07/29 09:20:59;;;;;;;4.10;2.80;;;22.90;96.40;;;;;;5053710;28;20472;-69
2023/07/29 09:23:28;;;;;;;4.80;2.80;;;23.00;95.70;;;;;;5053066;28;20452;-69
2023/07/29 09:26:02;;;;;;;4.23;3.10;;;23.10;96.60;;;;;;5053600;28;20498;-69
2023/07/29 09:28:34;;;;;;;6.03;3.00;;;23.20;96.90;;;;;;5053115;28;20966;-70
2023/07/29 09:31:01;;;;;;;5.43;3.27;;;23.20;93.90;;;;;;5053607;28;20837;-70
2023/07/29 09:33:40;;;;;;;4.83;3.07;;;23.20;94.00;;;;;;5052239;28;20479;-69
2023/07/29 09:36:10;;;;;;;3.90;2.83;;;23.30;94.90;;;;;;5052840;28;20461;-69
2023/07/29 09:38:39;;;;;;;4.37;2.97;;;23.50;95.30;;;;;;5052998;28;21002;-69
2023/07/29 09:41:06;;;;;;;4.57;2.93;;;23.70;95.20;;;;;;5053072;28;20939;-69
2023/07/29 09:43:34;;;;;;;8.73;3.40;;;23.90;95.20;;;;;;5052857;28;20789;-72
2023/07/29 09:46:02;;;;;;;4.80;2.90;;;24.00;93.60;;;;;;5051428;28;20568;-69
2023/07/29 09:48:29;;;;;;;4.90;3.20;;;24.10;93.20;;;;;;5052680;28;20437;-69
2023/07/29 09:51:10;;;;;;;4.83;2.90;;;24.20;92.90;;;;;;5053433;28;20429;-70
2023/07/29 09:53:43;;;;;;;5.20;3.50;;;24.50;94.10;;;;;;5053161;28;20469;-69
2023/07/29 09:56:10;;;;;;;5.00;2.73;;;24.70;92.90;;;;;;5051953;28;20461;-69
2023/07/29 09:58:38;;;;;;;4.30;2.67;;;24.80;91.90;;;;;;5053195;28;20514;-69
2023/07/29 10:01:06;;;;;;;3.87;2.97;;;24.90;91.20;;;;;;5053221;28;20441;-69
2023/07/29 10:03:34;;;;;;;4.30;3.20;;;25.00;91.00;;;;;;5052980;28;20473;-69
2023/07/29 10:06:02;;;;;;;3.70;2.90;;;25.20;90.90;;;;;;5052618;28;20528;-71
2023/07/29 10:08:31;;;;;;;5.40;3.60;;;25.30;88.90;;;;;;5053001;28;20520;-69
2023/07/29 10:11:01;;;;;;;6.90;3.03;;;25.40;87.60;;;;;;5052146;28;20565;-69
2023/07/29 10:13:28;;;;;;;4.07;2.70;;;25.50;87.50;;;;;;5052909;28;20543;-70
2023/07/29 10:16:02;;;;;;;5.37;3.73;;;25.60;89.00;;;;;;5053117;28;20560;-69
2023/07/29 10:18:33;;;;;;;5.03;3.47;;;25.80;87.80;;;;;;5052325;28;20436;-69
2023/07/29 10:21:02;;;;;;;4.50;3.20;;;25.90;86.50;;;;;;5052211;28;20453;-71
2023/07/29 10:23:33;;;;;;;5.40;2.73;;;26.10;89.60;;;;;;5052879;28;20492;-69
2023/07/29 10:26:04;;;;;;;5.77;2.90;;;26.30;87.50;;;;;;5052870;28;20788;-69
2023/07/29 10:28:34;;;;;;;4.90;3.00;;;26.50;87.70;;;;;;5052845;28;20517;-70
2023/07/29 10:31:01;;;;;;;5.93;3.20;;;26.60;86.60;;;;;;5050831;28;20772;-71
2023/07/29 10:33:28;;;;;;;4.50;2.90;;;26.70;84.50;;;;;;5052373;28;20441;-69
2023/07/29 10:35:56;;;;;;;6.03;3.27;;;26.80;83.30;;;;;;5048054;28;20511;-69
2023/07/29 10:38:25;;;;;;;6.40;3.40;;;26.80;82.60;;;;;;5050803;28;20940;-69
2023/07/29 10:40:55;;;;;;;4.00;2.67;;;26.80;80.60;;;;;;5047579;28;20437;-68
2023/07/29 10:43:28;;;;;;;5.30;3.17;;;26.90;83.70;;;;;;5052761;28;20426;-68
2023/07/29 10:45:57;;;;;;;5.37;3.57;;;26.90;81.30;;;;;;5054341;28;20449;-69
2023/07/29 10:48:43;;;;;;;5.37;3.10;;;27.00;79.40;;;;;;5056168;28;20978;-69
2023/07/29 10:51:30;;;;;;;5.23;3.10;;;27.00;80.40;;;;;;5056141;28;20536;-69
2023/07/29 10:53:58;;;;;;;5.53;3.67;;;26.90;78.50;;;;;;5056171;28;20476;-69
2023/07/29 10:56:30;;;;;;;4.00;2.47;;;26.90;78.80;;;;;;5046028;28;20501;-68
2023/07/29 10:59:03;;;;;;;6.90;2.70;;;26.80;79.20;;;;;;5056155;28;20508;-68
2023/07/29 11:01:32;;;;;;;3.90;3.00;;;26.80;77.00;;;;;;5056116;28;20434;-68
2023/07/29 11:04:30;;;;;;;3.90;3.00;;;26.80;78.20;;;;;;5055784;28;20449;-68
2023/07/29 11:07:26;;;;;;;4.37;2.60;;;26.80;77.00;;;;;;5053720;28;20472;-68
2023/07/29 11:10:12;;;;;;;3.83;2.50;;;26.90;75.80;;;;;;5055501;28;20992;-68
2023/07/29 11:12:42;;;;;;;4.67;3.33;;;26.90;75.30;;;;;;5041418;28;20512;-69
2023/07/29 11:15:21;;;;;;;4.30;3.20;;;27.00;76.20;;;;;;5055233;28;20445;-69
2023/07/29 11:17:50;;;;;;;4.10;2.93;;;27.00;74.90;;;;;;5056115;28;21167;-68
2023/07/29 11:20:17;;;;;;;3.83;2.73;;;27.20;74.00;;;;;;5055409;28;20524;-68
2023/07/29 11:22:44;;;;;;;4.20;3.07;;;27.20;72.30;;;;;;5052030;28;20469;-69
2023/07/29 11:25:14;;;;;;;4.37;2.80;;;27.30;73.70;;;;;;5055017;28;20480;-69
2023/07/29 11:27:41;;;;;;;3.80;3.00;;;27.40;74.30;;;;;;5055752;28;20540;-69
2023/07/29 11:30:10;;;;;;;5.93;3.10;;;27.50;69.90;;;;;;5054984;28;20524;-68
2023/07/29 11:32:40;;;;;;;4.63;3.30;;;27.50;70.40;;;;;;5053882;28;20438;-70
2023/07/29 11:35:09;;;;;;;4.13;2.73;;;27.40;65.20;;;;;;5054592;28;20524;-68
2023/07/29 11:37:37;;;;;;;4.50;3.03;;;27.40;65.00;;;;;;5054863;28;20476;-69
2023/07/29 11:40:06;;;;;;;4.20;2.47;;;27.40;66.60;;;;;;5053011;28;20529;-70
2023/07/29 11:42:34;;;;;;;6.60;2.73;;;27.40;68.60;;;;;;5055361;28;20440;-69
2023/07/29 11:45:01;;;;;;;5.50;3.10;;;27.50;66.20;;;;;;5055140;28;20441;-69
2023/07/29 11:47:28;;;;;;;8.73;3.87;;;27.60;67.80;;;;;;5055420;28;20536;-68
2023/07/29 11:50:00;;;;;;;5.50;3.80;;;27.70;68.40;;;;;;5055165;28;20532;-70
2023/07/29 11:52:28;;;;;;;5.07;3.80;;;27.70;64.80;;;;;;5054826;28;20430;-69
2023/07/29 11:54:55;;;;;;;4.70;3.57;;;27.80;65.70;;;;;;5054545;28;20482;-69
2023/07/29 11:57:22;;;;;;;5.77;3.57;;;27.90;64.90;;;;;;5053451;28;20560;-70
2023/07/29 11:59:49;;;;;;;5.07;3.00;;;27.90;63.30;;;;;;5054581;28;20430;-68
2023/07/29 12:02:17;;;;;;;4.23;2.80;;;27.90;63.20;;;;;;5054176;28;20463;-68
2023/07/29 12:04:47;;;;;;;5.40;3.13;;;27.90;62.60;;;;;;5054418;28;20516;-69
2023/07/29 12:07:19;;;;;;;4.47;3.07;;;27.90;62.00;;;;;;5054686;28;20452;-68
2023/07/29 12:09:47;;;;;;;5.90;3.20;;;27.90;62.20;;;;;;5054521;28;20552;-68
2023/07/29 12:12:16;;;;;;;5.13;2.53;;;27.90;60.50;;;;;;5054622;28;20480;-69
2023/07/29 12:14:46;;;;;;;6.23;2.80;;;27.90;62.10;;;;;;5053959;28;20437;-69
2023/07/29 12:17:13;;;;;;;3.83;3.07;;;28.00;62.80;;;;;;5054470;28;20473;-68
2023/07/29 12:19:41;;;;;;;3.87;2.73;;;28.00;61.20;;;;;;5054774;28;20472;-69
2023/07/29 12:22:09;;;;;;;3.67;2.47;;;28.00;61.00;;;;;;5054875;28;20923;-68
2023/07/29 12:24:39;;;;;;;5.47;3.27;;;28.00;60.50;;;;;;5054427;28;20434;-68
2023/07/29 12:27:11;;;;;;;4.17;2.63;;;28.00;60.40;;;;;;5054408;28;20492;-68
2023/07/29 12:29:41;;;;;;;4.93;3.20;;;28.00;61.00;;;;;;5054231;28;20491;-69
2023/07/29 12:32:19;;;;;;;3.90;2.97;;;28.00;61.40;;;;;;5053682;28;20441;-69
2023/07/29 12:34:46;;;;;;;3.60;2.67;;;28.00;62.80;;;;;;5054145;28;20457;-69
2023/07/29 12:37:14;;;;;;;5.23;3.13;;;28.00;62.70;;;;;;5054271;28;20509;-69
2023/07/29 12:39:42;;;;;;;4.70;3.37;;;28.00;60.80;;;;;;5053511;28;20435;-76
2023/07/29 12:42:09;;;;;;;4.37;2.93;;;28.00;61.80;;;;;;5054292;28;20441;-68
2023/07/29 12:44:37;;;;;;;6.43;2.80;;;27.90;59.60;;;;;;5053366;28;20494;-70
2023/07/29 12:47:08;;;;;;;3.70;2.80;;;27.90;59.70;;;;;;5053653;28;20473;-68
2023/07/29 12:49:35;;;;;;;6.50;3.27;;;27.90;60.20;;;;;;5054477;28;20445;-69
2023/07/29 12:52:02;;;;;;;4.33;2.70;;;27.90;60.40;;;;;;5054222;28;20422;-68
2023/07/29 12:54:31;;;;;;;4.30;2.50;;;27.90;60.60;;;;;;5053699;28;20795;-69